Flight Track Log - Related Links

Times and Time Zones

All times are in EDT time to prevent confusion due to time zone crossing. See the QLK320 flight status page for this flight to view local times or setup timezone preferences in your user account.

Time Position Orientation Groundspeed Altitude Reporting Facility
EDT Latitude Longitude Course Direction KTS MPH feet Rate Location/Type
Thu 06:35:22 PM -27.2840 153.0911 326° Northwest 151 174 2,900  Level Aus
Thu 06:36:46 PM -27.2239 153.0461 326° Northwest 197 227 4,000 814 Climbing Aus
Thu 06:38:41 PM -27.1105 153.0161 347° North 227 261 5,600 773 Climbing Aus
Thu 06:41:41 PM -26.9243 152.9776 350° North 226 260 7,800 805 Climbing Aus
Thu 06:43:02 PM -26.8422 152.9622 350° North 219 252 9,100 853 Climbing Aus
Thu 06:44:51 PM -26.7303 152.9399 350° North 218 251 10,500 811 Climbing Aus
Thu 06:47:21 PM -26.5851 152.9119 350° North 208 239 12,600 741 Climbing Aus
Thu 06:48:54 PM -26.5074 152.8970 350° North 212 244 13,500 661 Climbing Aus
Thu 06:49:10 PM -26.4930 152.8945 351° North 210 242 13,800 153 Climbing Aus
Thu 06:52:10 PM -26.2823 152.8540 350° North 252 290 14,000 47 Climbing Aus
Thu 06:53:25 PM -26.1950 152.8376 350° North 255 293 14,000  Level Aus
Thu 06:54:50 PM -26.0956 152.8178 350° North 257 296 14,000  Level Aus
Thu 06:55:05 PM -26.0779 152.8149 352° North 258 297 14,000  Level Aus
Thu 06:56:35 PM -25.9722 152.7945 350° North 256 295 14,000  Level Aus
Thu 06:59:10 PM -25.7889 152.7601 350° North 259 298 14,000 -118 Level Aus
Thu 07:00:50 PM -25.6686 152.7368 350° North 271 312 13,500 -321 Descending Aus
Thu 07:02:17 PM -25.5856 152.7219 351° North 281 323 13,000 -317 Descending Aus
Thu 07:03:59 PM -25.5147 152.7092 351° North 280 322 12,500 -1,103 Descending Aus
Thu 07:05:22 PM -25.3585 152.6073 329° Northwest 266 306 9,600 -1,729 Descending Aus
Thu 07:06:49 PM -25.2617 152.5455 330° Northwest 254 292 7,600 -1,412 Descending Aus
Thu 07:07:04 PM -25.2460 152.5360 331° Northwest 257 296 7,200 -1,364 Descending Aus
Thu 07:08:39 PM -25.1501 152.4771 331° Northwest 243 280 5,100 -991 Descending Aus
Thu 07:12:43 PM -24.9659 152.3573 329° Northwest 140 161 1,600 -811 Descending Aus
Thu 07:12:58 PM -24.9575 152.3519 330° Northwest 140 161 1,600  Level Aus
Thu 07:13:24 PM -24.9444 152.3432 329° Northwest 135 155 1,600  Level Aus

Login

Don't have an account? Register now (free) for customized features, flight alerts, and more!